Time,TemperatureF,DewpointF,PressureIn,WindDirection,WindDirectionDegrees,WindSpeedMPH,WindSpeedGustMPH,Humidity,HourlyPrecipIn,Conditions,Clouds,dailyrainin,SoftwareType,DateUTC
2013-03-04 00:00:00,50.1,38.1,30.42,NW,315,0.0,0.0,63,0.00,,,0.00,WUHU21623XXSP,2013-03-04 05:00:00,
2013-03-04 00:01:00,50.1,38.1,30.41,NW,315,0.0,0.0,63,0.00,,,0.00,WUHU21623XXSP,2013-03-04 05:01:00,
2013-03-04 00:06:00,50.1,38.1,30.41,NW,315,0.0,0.0,63,0.00,,,0.00,WUHU21623XXSP,2013-03-04 05:06:00,
2013-03-04 00:11:00,50.1,38.1,30.42,WNW,292,0.0,0.0,63,0.00,,,0.00,WUHU21623XXSP,2013-03-04 05:11:00,
2013-03-04 00:16:00,50.1,38.1,30.42,NW,315,0.0,0.0,63,0.00,,,0.00,WUHU21623XXSP,2013-03-04 05:16:00,
2013-03-04 00:21:00,50.1,38.1,30.42,NW,315,0.0,0.0,63,0.00,,,0.00,WUHU21623XXSP,2013-03-04 05:21:00,
2013-03-04 00:26:00,50.1,38.1,30.41,WNW,292,0.0,0.0,63,0.00,,,0.00,WUHU21623XXSP,2013-03-04 05:26:00,
2013-03-04 00:31:00,50.3,38.3,30.41,NW,315,0.0,0.0,63,0.00,,,0.00,WUHU21623XXSP,2013-03-04 05:31:00,
2013-03-04 00:37:00,50.3,38.3,30.42,West,270,0.0,0.0,63,0.00,,,0.00,WUHU21623XXSP,2013-03-04 05:37:00,
2013-03-04 00:42:00,50.4,38.4,30.41,WNW,292,0.0,0.0,63,0.00,,,0.00,WUHU21623XXSP,2013-03-04 05:42:00,
2013-03-04 00:47:00,50.4,38.4,30.41,West,270,0.0,0.0,63,0.00,,,0.00,WUHU21623XXSP,2013-03-04 05:47:00,
2013-03-04 00:52:00,50.4,38.4,30.42,NW,315,0.0,0.0,63,0.00,,,0.00,WUHU21623XXSP,2013-03-04 05:52:00,
2013-03-04 00:57:00,50.4,38.4,30.42,NW,315,0.0,0.0,63,0.00,,,0.00,WUHU21623XXSP,2013-03-04 05:57:00,
2013-03-04 01:02:00,50.4,38.4,30.42,WNW,292,0.0,0.0,63,0.00,,,0.00,WUHU21623XXSP,2013-03-04 06:02:00,
2013-03-04 01:07:00,50.4,38.4,30.41,NW,315,0.0,0.0,63,0.00,,,0.00,WUHU21623XXSP,2013-03-04 06:07:00,
2013-03-04 01:08:00,50.4,38.0,30.41,WNW,292,0.0,0.0,62,0.00,,,0.00,WUHU21623XXSP,2013-03-04 06:08:00,
2013-03-04 01:14:00,50.4,38.4,30.41,North,0,0.0,0.0,63,0.00,,,0.00,WUHU21623XXSP,2013-03-04 06:14:00,
2013-03-04 01:20:00,50.4,38.4,30.40,NW,315,0.0,0.0,63,0.00,,,0.00,WUHU21623XXSP,2013-03-04 06:20:00,
2013-03-04 01:26:00,50.4,38.4,30.41,North,0,0.0,0.0,63,0.00,,,0.00,WUHU21623XXSP,2013-03-04 06:26:00,
2013-03-04 01:32:00,50.4,38.4,30.41,WNW,292,0.0,0.0,63,0.00,,,0.00,WUHU21623XXSP,2013-03-04 06:32:00,
2013-03-04 01:38:00,50.4,38.0,30.41,NW,315,0.0,0.0,62,0.00,,,0.00,WUHU21623XXSP,2013-03-04 06:38:00,
2013-03-04 01:44:00,50.3,37.9,30.41,WNW,292,0.0,0.0,62,0.00,,,0.00,WUHU21623XXSP,2013-03-04 06:44:00,
2013-03-04 01:51:00,50.4,38.0,30.41,North,0,0.0,0.0,62,0.00,,,0.00,WUHU21623XXSP,2013-03-04 06:51:00,
2013-03-04 01:57:00,50.4,38.0,30.41,NW,315,0.0,0.0,62,0.00,,,0.00,WUHU21623XXSP,2013-03-04 06:57:00,
2013-03-04 02:03:00,50.1,37.7,30.41,North,0,0.0,0.0,62,0.00,,,0.00,WUHU21623XXSP,2013-03-04 07:03:00,
2013-03-04 02:09:00,50.1,37.7,30.40,NW,315,0.0,0.0,62,0.00,,,0.00,WUHU21623XXSP,2013-03-04 07:09:00,
2013-03-04 02:15:00,49.9,37.5,30.40,WNW,292,0.0,0.0,62,0.00,,,0.00,WUHU21623XXSP,2013-03-04 07:15:00,
2013-03-04 02:21:00,49.9,37.5,30.40,WNW,292,0.0,0.0,62,0.00,,,0.00,WUHU21623XXSP,2013-03-04 07:21:00,
2013-03-04 02:36:00,49.7,37.7,30.40,WNW,292,0.0,0.0,63,0.00,,,0.00,WUHU21623XXSP,2013-03-04 07:36:00,
2013-03-04 02:41:00,49.7,37.7,30.40,WNW,292,0.0,0.0,63,0.00,,,0.00,WUHU21623XXSP,2013-03-04 07:41:00,
2013-03-04 02:46:00,49.5,37.5,30.40,NNE,22,0.0,0.0,63,0.00,,,0.00,WUHU21623XXSP,2013-03-04 07:46:00,
2013-03-04 02:51:00,49.5,37.5,30.40,NNE,22,0.0,0.0,63,0.00,,,0.00,WUHU21623XXSP,2013-03-04 07:51:00,
2013-03-04 02:56:00,49.4,37.0,30.40,North,0,0.0,0.0,62,0.00,,,0.00,WUHU21623XXSP,2013-03-04 07:56:00,
2013-03-04 03:01:00,49.2,37.2,30.40,NE,45,0.0,0.0,63,0.00,,,0.00,WUHU21623XXSP,2013-03-04 08:01:00,
2013-03-04 03:06:00,48.6,36.3,30.40,North,0,0.0,0.0,62,0.00,,,0.00,WUHU21623XXSP,2013-03-04 08:06:00,
2013-03-04 03:11:00,48.1,35.4,30.40,NNE,22,0.0,0.0,61,0.00,,,0.00,WUHU21623XXSP,2013-03-04 08:11:00,
2013-03-04 03:16:00,47.6,34.5,30.40,NNE,22,0.0,0.0,60,0.00,,,0.00,WUHU21623XXSP,2013-03-04 08:16:00,
2013-03-04 03:21:00,47.0,33.5,30.40,NNW,337,0.0,0.0,59,0.00,,,0.00,WUHU21623XXSP,2013-03-04 08:21:00,
2013-03-04 03:26:00,46.7,33.2,30.41,North,0,0.0,0.0,59,0.00,,,0.00,WUHU21623XXSP,2013-03-04 08:26:00,
2013-03-04 03:31:00,46.3,32.4,30.40,NNE,22,0.0,0.0,58,0.00,,,0.00,WUHU21623XXSP,2013-03-04 08:31:00,
2013-03-04 03:36:00,45.9,32.0,30.40,ENE,67,0.0,0.0,58,0.00,,,0.00,WUHU21623XXSP,2013-03-04 08:36:00,
2013-03-04 03:41:00,45.6,31.7,30.41,NE,45,0.0,0.0,58,0.00,,,0.00,WUHU21623XXSP,2013-03-04 08:41:00,
2013-03-04 03:46:00,45.4,31.5,30.40,NNE,22,0.0,0.0,58,0.00,,,0.00,WUHU21623XXSP,2013-03-04 08:46:00,
2013-03-04 03:51:00,45.2,31.8,30.40,ENE,67,0.0,0.0,59,0.00,,,0.00,WUHU21623XXSP,2013-03-04 08:51:00,
2013-03-04 03:56:00,45.0,31.6,30.40,NNE,22,0.0,0.0,59,0.00,,,0.00,WUHU21623XXSP,2013-03-04 08:56:00,
2013-03-04 04:01:00,44.9,31.5,30.40,NNE,22,0.0,0.0,59,0.00,,,0.00,WUHU21623XXSP,2013-03-04 09:01:00,
2013-03-04 04:06:00,44.5,31.5,30.40,NNE,22,0.0,0.0,60,0.00,,,0.00,WUHU21623XXSP,2013-03-04 09:06:00,
2013-03-04 04:11:00,44.3,31.8,30.40,NNE,22,0.0,0.0,61,0.00,,,0.00,WUHU21623XXSP,2013-03-04 09:11:00,
2013-03-04 04:16:00,44.1,31.2,30.40,NE,45,0.0,0.0,60,0.00,,,0.00,WUHU21623XXSP,2013-03-04 09:16:00,
2013-03-04 04:21:00,44.0,31.1,30.40,NE,45,0.0,0.0,60,0.00,,,0.00,WUHU21623XXSP,2013-03-04 09:21:00,
2013-03-04 04:26:00,44.0,31.5,30.40,NE,45,0.0,0.0,61,0.00,,,0.00,WUHU21623XXSP,2013-03-04 09:26:00,
2013-03-04 04:32:00,43.8,30.9,30.41,NNE,22,0.0,0.0,60,0.00,,,0.00,WUHU21623XXSP,2013-03-04 09:32:00,
2013-03-04 04:37:00,43.8,31.3,30.41,NNE,22,0.0,0.0,61,0.00,,,0.00,WUHU21623XXSP,2013-03-04 09:37:00,
2013-03-04 04:42:00,43.6,31.1,30.41,North,0,0.0,0.0,61,0.00,,,0.00,WUHU21623XXSP,2013-03-04 09:42:00,
2013-03-04 04:47:00,43.6,31.1,30.41,NNE,22,0.0,0.0,61,0.00,,,0.00,WUHU21623XXSP,2013-03-04 09:47:00,
2013-03-04 04:52:00,43.4,30.9,30.41,NNE,22,0.0,0.0,61,0.00,,,0.00,WUHU21623XXSP,2013-03-04 09:52:00,
2013-03-04 04:57:00,43.4,30.9,30.41,NE,45,0.0,0.0,61,0.00,,,0.00,WUHU21623XXSP,2013-03-04 09:57:00,
2013-03-04 05:02:00,43.4,30.9,30.42,NE,45,0.0,0.0,61,0.00,,,0.00,WUHU21623XXSP,2013-03-04 10:02:00,
2013-03-04 05:07:00,43.2,30.7,30.42,NE,45,0.0,0.0,61,0.00,,,0.00,WUHU21623XXSP,2013-03-04 10:07:00,
2013-03-04 05:12:00,43.2,30.7,30.42,NE,45,0.0,0.0,61,0.00,,,0.00,WUHU21623XXSP,2013-03-04 10:12:00,
2013-03-04 05:17:00,43.1,31.0,30.41,NNE,22,0.0,0.0,62,0.00,,,0.00,WUHU21623XXSP,2013-03-04 10:17:00,
2013-03-04 05:22:00,42.9,30.9,30.42,North,0,0.0,0.0,62,0.00,,,0.00,WUHU21623XXSP,2013-03-04 10:22:00,
2013-03-04 05:27:00,42.9,30.9,30.42,NE,45,0.0,0.0,62,0.00,,,0.00,WUHU21623XXSP,2013-03-04 10:27:00,
2013-03-04 05:32:00,42.9,30.9,30.42,NE,45,0.0,0.0,62,0.00,,,0.00,WUHU21623XXSP,2013-03-04 10:32:00,
2013-03-04 05:37:00,42.7,30.7,30.42,NNE,22,0.0,0.0,62,0.00,,,0.00,WUHU21623XXSP,2013-03-04 10:37:00,
2013-03-04 05:42:00,42.7,30.7,30.43,NNE,22,0.0,0.0,62,0.00,,,0.00,WUHU21623XXSP,2013-03-04 10:42:00,
2013-03-04 05:47:00,42.7,30.3,30.42,NNE,22,0.0,0.0,61,0.00,,,0.00,WUHU21623XXSP,2013-03-04 10:47:00,
2013-03-04 05:52:00,42.5,30.5,30.42,NNE,22,0.0,0.0,62,0.00,,,0.00,WUHU21623XXSP,2013-03-04 10:52:00,
2013-03-04 05:57:00,42.5,30.5,30.43,NE,45,0.0,0.0,62,0.00,,,0.00,WUHU21623XXSP,2013-03-04 10:57:00,
2013-03-04 06:02:00,42.5,30.5,30.43,NE,45,0.0,0.0,62,0.00,,,0.00,WUHU21623XXSP,2013-03-04 11:02:00,
2013-03-04 06:07:00,42.3,30.3,30.43,NE,45,0.0,0.0,62,0.00,,,0.00,WUHU21623XXSP,2013-03-04 11:07:00,
2013-03-04 06:12:00,42.3,30.3,30.44,NE,45,0.0,0.0,62,0.00,,,0.00,WUHU21623XXSP,2013-03-04 11:12:00,
2013-03-04 06:17:00,42.2,30.2,30.44,NE,45,0.0,0.0,62,0.00,,,0.00,WUHU21623XXSP,2013-03-04 11:17:00,
2013-03-04 06:22:00,42.0,30.0,30.44,NE,45,0.0,0.0,62,0.00,,,0.00,WUHU21623XXSP,2013-03-04 11:22:00,
2013-03-04 06:27:00,41.8,30.2,30.45,NE,45,0.0,0.0,63,0.00,,,0.00,WUHU21623XXSP,2013-03-04 11:27:00,
2013-03-04 06:32:00,41.6,30.0,30.45,NE,45,0.0,0.0,63,0.00,,,0.00,WUHU21623XXSP,2013-03-04 11:32:00,
2013-03-04 06:37:00,41.4,29.8,30.45,NE,45,0.0,0.0,63,0.00,,,0.00,WUHU21623XXSP,2013-03-04 11:37:00,
2013-03-04 06:42:00,41.1,29.9,30.45,NE,45,0.0,0.0,64,0.00,,,0.00,WUHU21623XXSP,2013-03-04 11:42:00,
2013-03-04 06:47:00,41.1,29.9,30.45,NNE,22,0.0,0.0,64,0.00,,,0.00,WUHU21623XXSP,2013-03-04 11:47:00,
2013-03-04 06:52:00,41.1,29.9,30.45,NNE,22,0.0,0.0,64,0.00,,,0.00,WUHU21623XXSP,2013-03-04 11:52:00,
2013-03-04 06:57:00,41.1,29.9,30.45,NNE,22,0.0,0.0,64,0.00,,,0.00,WUHU21623XXSP,2013-03-04 11:57:00,
2013-03-04 07:02:00,41.4,29.8,30.45,NE,45,0.0,0.0,63,0.00,,,0.00,WUHU21623XXSP,2013-03-04 12:02:00,
2013-03-04 07:07:00,41.4,29.8,30.45,NE,45,0.0,0.0,63,0.00,,,0.00,WUHU21623XXSP,2013-03-04 12:07:00,
2013-03-04 07:12:00,41.6,30.0,30.45,NE,45,0.0,0.0,63,0.00,,,0.00,WUHU21623XXSP,2013-03-04 12:12:00,
2013-03-04 07:17:00,41.6,29.6,30.45,NE,45,0.0,0.0,62,0.00,,,0.00,WUHU21623XXSP,2013-03-04 12:17:00,
2013-03-04 07:22:00,42.0,30.0,30.46,NE,45,0.0,0.0,62,0.00,,,0.00,WUHU21623XXSP,2013-03-04 12:22:00,
2013-03-04 07:27:00,42.5,30.1,30.47,North,0,0.0,0.0,61,0.00,,,0.00,WUHU21623XXSP,2013-03-04 12:27:00,
2013-03-04 07:32:00,43.1,30.6,30.47,ENE,67,0.0,0.0,61,0.00,,,0.00,WUHU21623XXSP,2013-03-04 12:32:00,
2013-03-04 07:37:00,43.6,30.7,30.47,ESE,112,0.0,0.0,60,0.00,,,0.00,WUHU21623XXSP,2013-03-04 12:37:00,
2013-03-04 07:43:00,44.7,31.3,30.47,NE,45,0.0,0.0,59,0.00,,,0.00,WUHU21623XXSP,2013-03-04 12:43:00,
2013-03-04 07:48:00,45.8,31.5,30.47,NNE,22,0.0,0.0,57,0.00,,,0.00,WUHU21623XXSP,2013-03-04 12:48:00,
2013-03-04 07:53:00,47.2,32.3,30.48,NE,45,0.0,0.0,56,0.00,,,0.00,WUHU21623XXSP,2013-03-04 12:53:00,
2013-03-04 07:58:00,48.8,32.4,30.48,NE,45,0.0,0.0,53,0.00,,,0.00,WUHU21623XXSP,2013-03-04 12:58:00,
2013-03-04 08:03:00,49.7,32.3,30.48,NE,45,0.0,0.0,51,0.00,,,0.00,WUHU21623XXSP,2013-03-04 13:03:00,
2013-03-04 08:08:00,50.3,32.3,30.48,NE,45,0.0,0.0,50,0.00,,,0.00,WUHU21623XXSP,2013-03-04 13:08:00,
2013-03-04 08:13:00,50.4,31.4,30.49,NNE,22,0.0,0.0,48,0.00,,,0.00,WUHU21623XXSP,2013-03-04 13:13:00,
2013-03-04 08:18:00,50.1,30.6,30.48,NE,45,0.0,0.0,47,0.00,,,0.00,WUHU21623XXSP,2013-03-04 13:18:00,
2013-03-04 08:23:00,49.7,30.2,30.49,NE,45,0.0,0.0,47,0.00,,,0.00,WUHU21623XXSP,2013-03-04 13:23:00,
2013-03-04 08:28:00,49.4,29.9,30.49,NNW,337,0.0,0.0,47,0.00,,,0.00,WUHU21623XXSP,2013-03-04 13:28:00,
2013-03-04 08:33:00,49.2,29.7,30.49,ENE,67,0.0,0.0,47,0.00,,,0.00,WUHU21623XXSP,2013-03-04 13:33:00,
2013-03-04 08:38:00,49.4,29.9,30.49,NNE,22,0.0,0.0,47,0.00,,,0.00,WUHU21623XXSP,2013-03-04 13:38:00,
2013-03-04 08:43:00,49.7,30.2,30.49,NE,45,0.0,0.0,47,0.00,,,0.00,WUHU21623XXSP,2013-03-04 13:43:00,
2013-03-04 08:48:00,49.9,30.4,30.49,NE,45,0.0,0.0,47,0.00,,,0.00,WUHU21623XXSP,2013-03-04 13:48:00,
2013-03-04 08:53:00,50.1,30.6,30.49,ENE,67,0.0,0.0,47,0.00,,,0.00,WUHU21623XXSP,2013-03-04 13:53:00,
2013-03-04 08:58:00,50.4,30.8,30.50,NE,45,0.0,0.0,47,0.00,,,0.00,WUHU21623XXSP,2013-03-04 13:58:00,
2013-03-04 09:03:00,50.6,30.5,30.49,NNE,22,0.0,0.0,46,0.00,,,0.00,WUHU21623XXSP,2013-03-04 14:03:00,
2013-03-04 09:08:00,50.6,30.5,30.48,NNE,22,0.0,0.0,46,0.00,,,0.00,WUHU21623XXSP,2013-03-04 14:08:00,
2013-03-04 09:13:00,51.0,30.8,30.48,NE,45,0.0,0.0,46,0.00,,,0.00,WUHU21623XXSP,2013-03-04 14:13:00,
2013-03-04 09:18:00,51.5,31.3,30.48,NNE,22,0.0,0.0,46,0.00,,,0.00,WUHU21623XXSP,2013-03-04 14:18:00,
2013-03-04 09:23:00,51.7,30.9,30.47,NE,45,0.0,0.0,45,0.00,,,0.00,WUHU21623XXSP,2013-03-04 14:23:00,
2013-03-04 09:28:00,52.1,31.3,30.48,NE,45,0.0,0.0,45,0.00,,,0.00,WUHU21623XXSP,2013-03-04 14:28:00,
2013-03-04 09:33:00,52.4,31.6,30.48,ENE,67,0.0,0.0,45,0.00,,,0.00,WUHU21623XXSP,2013-03-04 14:33:00,
2013-03-04 09:38:00,53.0,32.1,30.48,NNE,22,0.0,0.0,45,0.00,,,0.00,WUHU21623XXSP,2013-03-04 14:38:00,
2013-03-04 09:43:00,53.3,31.8,30.48,NNE,22,0.0,0.0,44,0.00,,,0.00,WUHU21623XXSP,2013-03-04 14:43:00,
2013-03-04 09:48:00,53.7,32.2,30.48,NNE,22,0.0,0.0,44,0.00,,,0.00,WUHU21623XXSP,2013-03-04 14:48:00,
2013-03-04 09:53:00,54.2,32.1,30.48,NNE,22,0.0,0.0,43,0.00,,,0.00,WUHU21623XXSP,2013-03-04 14:53:00,
2013-03-04 09:58:00,54.2,32.1,30.48,ENE,67,0.0,0.0,43,0.00,,,0.00,WUHU21623XXSP,2013-03-04 14:58:00,
2013-03-04 10:03:00,54.8,32.6,30.48,NE,45,0.0,0.0,43,0.00,,,0.00,WUHU21623XXSP,2013-03-04 15:03:00,
2013-03-04 10:08:00,54.9,32.7,30.47,ENE,67,0.0,0.0,43,0.00,,,0.00,WUHU21623XXSP,2013-03-04 15:08:00,
2013-03-04 10:13:00,55.5,33.2,30.48,NNE,22,0.0,0.0,43,0.00,,,0.00,WUHU21623XXSP,2013-03-04 15:13:00,
2013-03-04 10:18:00,55.8,32.9,30.48,NNE,22,0.0,0.0,42,0.00,,,0.00,WUHU21623XXSP,2013-03-04 15:18:00,
2013-03-04 10:23:00,55.8,33.5,30.48,NW,315,0.0,0.0,43,0.00,,,0.00,WUHU21623XXSP,2013-03-04 15:23:00,
2013-03-04 10:28:00,56.4,34.0,30.48,SE,135,0.0,0.0,43,0.00,,,0.00,WUHU21623XXSP,2013-03-04 15:28:00,
2013-03-04 10:33:00,56.9,33.9,30.48,NE,45,0.0,0.0,42,0.00,,,0.00,WUHU21623XXSP,2013-03-04 15:33:00,
2013-03-04 10:38:00,56.9,33.9,30.48,NNE,22,0.0,0.0,42,0.00,,,0.00,WUHU21623XXSP,2013-03-04 15:38:00,
2013-03-04 10:43:00,57.3,34.3,30.48,ENE,67,0.0,0.0,42,0.00,,,0.00,WUHU21623XXSP,2013-03-04 15:43:00,
2013-03-04 10:48:00,57.8,35.3,30.48,ENE,67,0.0,0.0,43,0.00,,,0.00,WUHU21623XXSP,2013-03-04 15:48:00,
2013-03-04 10:53:00,58.2,35.1,30.48,ESE,112,0.0,0.0,42,0.00,,,0.00,WUHU21623XXSP,2013-03-04 15:53:00,
2013-03-04 10:58:00,58.2,35.1,30.48,SE,135,0.0,0.0,42,0.00,,,0.00,WUHU21623XXSP,2013-03-04 15:58:00,
2013-03-04 11:03:00,58.5,36.0,30.48,South,180,0.0,0.0,43,0.00,,,0.00,WUHU21623XXSP,2013-03-04 16:03:00,
2013-03-04 11:08:00,58.7,35.5,30.47,SE,135,0.0,0.0,42,0.00,,,0.00,WUHU21623XXSP,2013-03-04 16:08:00,
2013-03-04 11:13:00,58.4,34.6,30.47,SE,135,0.0,0.0,41,0.00,,,0.00,WUHU21623XXSP,2013-03-04 16:13:00,
2013-03-04 11:18:00,58.4,35.9,30.47,SE,135,0.0,0.0,43,0.00,,,0.00,WUHU21623XXSP,2013-03-04 16:18:00,
2013-03-04 11:23:00,58.5,35.3,30.47,East,90,0.0,0.0,42,0.00,,,0.00,WUHU21623XXSP,2013-03-04 16:23:00,
2013-03-04 11:28:00,58.9,35.7,30.47,SE,135,0.0,0.0,42,0.00,,,0.00,WUHU21623XXSP,2013-03-04 16:28:00,
2013-03-04 11:34:00,59.3,36.1,30.47,ESE,112,0.0,0.0,42,0.00,,,0.00,WUHU21623XXSP,2013-03-04 16:34:00,
2013-03-04 11:39:00,59.3,35.4,30.46,ESE,112,0.0,0.0,41,0.00,,,0.00,WUHU21623XXSP,2013-03-04 16:39:00,
2013-03-04 11:44:00,59.1,35.9,30.47,NE,45,0.0,0.0,42,0.00,,,0.00,WUHU21623XXSP,2013-03-04 16:44:00,
2013-03-04 11:49:00,59.4,36.2,30.47,NE,45,0.0,0.0,42,0.00,,,0.00,WUHU21623XXSP,2013-03-04 16:49:00,
2013-03-04 11:54:00,59.6,35.7,30.46,ESE,112,0.0,0.0,41,0.00,,,0.00,WUHU21623XXSP,2013-03-04 16:54:00,
2013-03-04 11:59:00,59.1,36.5,30.46,SSE,157,0.0,0.0,43,0.00,,,0.00,WUHU21623XXSP,2013-03-04 16:59:00,
2013-03-04 12:04:00,59.6,36.3,30.46,SE,135,0.0,0.0,42,0.00,,,0.00,WUHU21623XXSP,2013-03-04 17:04:00,
2013-03-04 12:09:00,60.0,36.7,30.45,SSE,157,0.0,0.0,42,0.00,,,0.00,WUHU21623XXSP,2013-03-04 17:09:00,
2013-03-04 12:14:00,60.0,36.1,30.45,ESE,112,0.0,0.0,41,0.00,,,0.00,WUHU21623XXSP,2013-03-04 17:14:00,
2013-03-04 12:19:00,60.2,36.3,30.45,ESE,112,0.0,0.0,41,0.00,,,0.00,WUHU21623XXSP,2013-03-04 17:19:00,
2013-03-04 12:24:00,60.2,36.3,30.45,ESE,112,0.0,0.0,41,0.00,,,0.00,WUHU21623XXSP,2013-03-04 17:24:00,
2013-03-04 12:29:00,60.3,36.4,30.44,ENE,67,0.0,0.0,41,0.00,,,0.00,WUHU21623XXSP,2013-03-04 17:29:00,
2013-03-04 12:34:00,60.5,36.5,30.44,ENE,67,0.0,0.0,41,0.00,,,0.00,WUHU21623XXSP,2013-03-04 17:34:00,
2013-03-04 12:39:00,60.9,36.9,30.43,ESE,112,0.0,0.0,41,0.00,,,0.00,WUHU21623XXSP,2013-03-04 17:39:00,
2013-03-04 12:44:00,61.2,36.5,30.43,ENE,67,0.0,0.0,40,0.00,,,0.00,WUHU21623XXSP,2013-03-04 17:44:00,
2013-03-04 12:49:00,61.4,37.3,30.44,WSW,247,0.0,0.0,41,0.00,,,0.00,WUHU21623XXSP,2013-03-04 17:49:00,
2013-03-04 12:54:00,62.0,37.2,30.43,SW,225,0.0,0.0,40,0.00,,,0.00,WUHU21623XXSP,2013-03-04 17:54:00,
2013-03-04 12:59:00,62.1,37.3,30.43,ENE,67,0.0,0.0,40,0.00,,,0.00,WUHU21623XXSP,2013-03-04 17:59:00,
2013-03-04 13:04:00,62.7,38.5,30.43,South,180,0.0,0.0,41,0.00,,,0.00,WUHU21623XXSP,2013-03-04 18:04:00,
2013-03-04 13:09:00,63.2,39.0,30.42,SSE,157,0.0,0.0,41,0.00,,,0.00,WUHU21623XXSP,2013-03-04 18:09:00,
2013-03-04 13:14:00,63.9,39.6,30.42,ENE,67,0.0,0.0,41,0.00,,,0.00,WUHU21623XXSP,2013-03-04 18:14:00,
2013-03-04 13:19:00,64.1,38.5,30.42,East,90,0.0,0.0,39,0.00,,,0.00,WUHU21623XXSP,2013-03-04 18:19:00,
2013-03-04 13:24:00,64.1,38.5,30.42,NW,315,0.0,0.0,39,0.00,,,0.00,WUHU21623XXSP,2013-03-04 18:24:00,
2013-03-04 13:29:00,64.1,38.5,30.41,WNW,292,0.0,0.0,39,0.00,,,0.00,WUHU21623XXSP,2013-03-04 18:29:00,
2013-03-04 13:30:00,64.1,38.5,30.41,West,270,0.0,0.0,39,0.00,,,0.00,WUHU21623XXSP,2013-03-04 18:30:00,
2013-03-04 13:35:00,64.1,38.5,30.42,North,0,0.0,0.0,39,0.00,,,0.00,WUHU21623XXSP,2013-03-04 18:35:00,
2013-03-04 13:40:00,64.3,38.7,30.41,NNW,337,0.0,0.0,39,0.00,,,0.00,WUHU21623XXSP,2013-03-04 18:40:00,
2013-03-04 13:45:00,64.3,38.7,30.41,WSW,247,0.0,0.0,39,0.00,,,0.00,WUHU21623XXSP,2013-03-04 18:45:00,
2013-03-04 13:50:00,64.5,39.5,30.41,WNW,292,0.0,0.0,40,0.00,,,0.00,WUHU21623XXSP,2013-03-04 18:50:00,
2013-03-04 13:55:00,64.5,38.2,30.41,NNW,337,0.0,0.0,38,0.00,,,0.00,WUHU21623XXSP,2013-03-04 18:55:00,
2013-03-04 14:00:00,64.3,38.0,30.41,WNW,292,0.0,0.0,38,0.00,,,0.00,WUHU21623XXSP,2013-03-04 19:00:00,
2013-03-04 14:05:00,64.3,38.7,30.41,NW,315,0.0,0.0,39,0.00,,,0.00,WUHU21623XXSP,2013-03-04 19:05:00,
2013-03-04 14:10:00,64.1,37.8,30.40,North,0,0.0,0.0,38,0.00,,,0.00,WUHU21623XXSP,2013-03-04 19:10:00,
2013-03-04 14:15:00,63.4,37.8,30.40,WNW,292,0.0,0.0,39,0.00,,,0.00,WUHU21623XXSP,2013-03-04 19:15:00,
2013-03-04 14:20:00,63.6,38.0,30.40,North,0,0.0,0.0,39,0.00,,,0.00,WUHU21623XXSP,2013-03-04 19:20:00,
2013-03-04 14:25:00,63.8,38.9,30.40,West,270,0.0,0.0,40,0.00,,,0.00,WUHU21623XXSP,2013-03-04 19:25:00,
2013-03-04 14:30:00,63.9,38.3,30.39,WNW,292,0.0,0.0,39,0.00,,,0.00,WUHU21623XXSP,2013-03-04 19:30:00,
2013-03-04 14:35:00,63.9,38.3,30.39,North,0,0.0,0.0,39,0.00,,,0.00,WUHU21623XXSP,2013-03-04 19:35:00,
2013-03-04 14:40:00,64.1,38.5,30.39,NW,315,0.0,0.0,39,0.00,,,0.00,WUHU21623XXSP,2013-03-04 19:40:00,
2013-03-04 14:46:00,63.9,37.6,30.39,West,270,0.0,0.0,38,0.00,,,0.00,WUHU21623XXSP,2013-03-04 19:46:00,
2013-03-04 14:51:00,63.6,37.3,30.39,WNW,292,0.0,0.0,38,0.00,,,0.00,WUHU21623XXSP,2013-03-04 19:51:00,
2013-03-04 14:56:00,63.6,38.0,30.39,NNW,337,0.0,0.0,39,0.00,,,0.00,WUHU21623XXSP,2013-03-04 19:56:00,
2013-03-04 15:01:00,63.6,37.3,30.39,NW,315,0.0,0.0,38,0.00,,,0.00,WUHU21623XXSP,2013-03-04 20:01:00,
2013-03-04 15:06:00,63.6,38.0,30.40,NNE,22,0.0,0.0,39,0.00,,,0.00,WUHU21623XXSP,2013-03-04 20:06:00,
2013-03-04 15:11:00,63.6,37.3,30.39,North,0,0.0,0.0,38,0.00,,,0.00,WUHU21623XXSP,2013-03-04 20:11:00,
2013-03-04 15:16:00,63.6,37.3,30.38,WNW,292,0.0,0.0,38,0.00,,,0.00,WUHU21623XXSP,2013-03-04 20:16:00,
2013-03-04 15:21:00,63.6,37.3,30.39,NNE,22,0.0,0.0,38,0.00,,,0.00,WUHU21623XXSP,2013-03-04 20:21:00,
2013-03-04 15:26:00,63.6,37.3,30.39,WNW,292,0.0,0.0,38,0.00,,,0.00,WUHU21623XXSP,2013-03-04 20:26:00,
2013-03-04 15:31:00,63.2,37.0,30.39,NW,315,0.0,0.0,38,0.00,,,0.00,WUHU21623XXSP,2013-03-04 20:31:00,
2013-03-04 15:36:00,63.2,37.7,30.39,West,270,0.0,0.0,39,0.00,,,0.00,WUHU21623XXSP,2013-03-04 20:36:00,
2013-03-04 15:41:00,63.2,37.7,30.39,NW,315,0.0,0.0,39,0.00,,,0.00,WUHU21623XXSP,2013-03-04 20:41:00,
2013-03-04 15:46:00,63.4,37.8,30.39,NW,315,0.0,0.0,39,0.00,,,0.00,WUHU21623XXSP,2013-03-04 20:46:00,
2013-03-04 15:51:00,63.6,38.0,30.39,WNW,292,0.0,0.0,39,0.00,,,0.00,WUHU21623XXSP,2013-03-04 20:51:00,
2013-03-04 15:56:00,63.4,37.8,30.39,West,270,0.0,0.0,39,0.00,,,0.00,WUHU21623XXSP,2013-03-04 20:56:00,
2013-03-04 16:01:00,63.2,37.7,30.39,West,270,0.0,0.0,39,0.00,,,0.00,WUHU21623XXSP,2013-03-04 21:01:00,
2013-03-04 16:06:00,63.2,37.7,30.38,NW,315,0.0,0.0,39,0.00,,,0.00,WUHU21623XXSP,2013-03-04 21:06:00,
2013-03-04 16:11:00,63.0,37.5,30.39,WSW,247,0.0,0.0,39,0.00,,,0.00,WUHU21623XXSP,2013-03-04 21:11:00,
2013-03-04 16:16:00,62.7,37.2,30.39,WNW,292,0.0,0.0,39,0.00,,,0.00,WUHU21623XXSP,2013-03-04 21:16:00,
2013-03-04 16:21:00,62.1,37.3,30.39,WNW,292,0.0,0.0,40,0.00,,,0.00,WUHU21623XXSP,2013-03-04 21:21:00,
2013-03-04 16:26:00,62.0,37.2,30.39,NW,315,0.0,0.0,40,0.00,,,0.00,WUHU21623XXSP,2013-03-04 21:26:00,
2013-03-04 16:31:00,61.4,36.7,30.39,NW,315,0.0,0.0,40,0.00,,,0.00,WUHU21623XXSP,2013-03-04 21:31:00,
2013-03-04 16:36:00,60.9,36.3,30.40,North,0,0.0,0.0,40,0.00,,,0.00,WUHU21623XXSP,2013-03-04 21:36:00,
2013-03-04 16:41:00,60.5,36.5,30.40,NW,315,0.0,0.0,41,0.00,,,0.00,WUHU21623XXSP,2013-03-04 21:41:00,
2013-03-04 16:46:00,60.5,37.2,30.40,West,270,0.0,0.0,42,0.00,,,0.00,WUHU21623XXSP,2013-03-04 21:46:00,
2013-03-04 16:51:00,60.5,37.2,30.40,West,270,0.0,0.0,42,0.00,,,0.00,WUHU21623XXSP,2013-03-04 21:51:00,
2013-03-04 16:56:00,60.3,37.0,30.40,West,270,0.0,0.0,42,0.00,,,0.00,WUHU21623XXSP,2013-03-04 21:56:00,
2013-03-04 17:01:00,60.0,37.3,30.40,WNW,292,0.0,0.0,43,0.00,,,0.00,WUHU21623XXSP,2013-03-04 22:01:00,
2013-03-04 17:06:00,59.6,37.0,30.40,West,270,0.0,0.0,43,0.00,,,0.00,WUHU21623XXSP,2013-03-04 22:06:00,
2013-03-04 17:11:00,59.6,37.6,30.40,NW,315,0.0,0.0,44,0.00,,,0.00,WUHU21623XXSP,2013-03-04 22:11:00,
2013-03-04 17:16:00,59.4,37.4,30.40,NW,315,0.0,0.0,44,0.00,,,0.00,WUHU21623XXSP,2013-03-04 22:16:00,
2013-03-04 17:21:00,59.1,37.1,30.41,WNW,292,0.0,0.0,44,0.00,,,0.00,WUHU21623XXSP,2013-03-04 22:21:00,
2013-03-04 17:26:00,58.7,36.7,30.41,NW,315,0.0,0.0,44,0.00,,,0.00,WUHU21623XXSP,2013-03-04 22:26:00,
2013-03-04 17:31:00,58.5,37.1,30.41,NW,315,0.0,0.0,45,0.00,,,0.00,WUHU21623XXSP,2013-03-04 22:31:00,
2013-03-04 17:36:00,58.4,37.1,30.41,North,0,0.0,0.0,45,0.00,,,0.00,WUHU21623XXSP,2013-03-04 22:36:00,
2013-03-04 17:41:00,57.8,37.1,30.41,NW,315,0.0,0.0,46,0.00,,,0.00,WUHU21623XXSP,2013-03-04 22:41:00,
2013-03-04 17:46:00,57.8,37.1,30.41,WNW,292,0.0,0.0,46,0.00,,,0.00,WUHU21623XXSP,2013-03-04 22:46:00,
2013-03-04 17:51:00,57.5,37.4,30.41,NNW,337,0.0,0.0,47,0.00,,,0.00,WUHU21623XXSP,2013-03-04 22:51:00,
2013-03-04 17:56:00,57.1,37.0,30.42,WNW,292,0.0,0.0,47,0.00,,,0.00,WUHU21623XXSP,2013-03-04 22:56:00,
2013-03-04 18:01:00,56.9,37.4,30.42,NW,315,0.0,0.0,48,0.00,,,0.00,WUHU21623XXSP,2013-03-04 23:01:00,
2013-03-04 18:06:00,56.4,36.9,30.41,WNW,292,0.0,0.0,48,0.00,,,0.00,WUHU21623XXSP,2013-03-04 23:06:00,
2013-03-04 18:11:00,56.0,37.1,30.42,NNW,337,0.0,0.0,49,0.00,,,0.00,WUHU21623XXSP,2013-03-04 23:11:00,
2013-03-04 18:16:00,55.8,36.9,30.41,WNW,292,0.0,0.0,49,0.00,,,0.00,WUHU21623XXSP,2013-03-04 23:16:00,
2013-03-04 18:21:00,55.3,37.0,30.41,NNW,337,0.0,0.0,50,0.00,,,0.00,WUHU21623XXSP,2013-03-04 23:21:00,
2013-03-04 18:26:00,54.9,37.1,30.41,WNW,292,0.0,0.0,51,0.00,,,0.00,WUHU21623XXSP,2013-03-04 23:26:00,
2013-03-04 18:31:00,54.6,36.8,30.42,NW,315,0.0,0.0,51,0.00,,,0.00,WUHU21623XXSP,2013-03-04 23:31:00,
2013-03-04 18:36:00,54.2,37.0,30.42,NW,315,0.0,0.0,52,0.00,,,0.00,WUHU21623XXSP,2013-03-04 23:36:00,
2013-03-04 18:41:00,54.0,37.3,30.42,WNW,292,0.0,0.0,53,0.00,,,0.00,WUHU21623XXSP,2013-03-04 23:41:00,
2013-03-04 18:46:00,53.7,37.0,30.42,WNW,292,0.0,0.0,53,0.00,,,0.00,WUHU21623XXSP,2013-03-04 23:46:00,
2013-03-04 18:51:00,53.5,37.3,30.41,WNW,292,0.0,0.0,54,0.00,,,0.00,WUHU21623XXSP,2013-03-04 23:51:00,
2013-03-04 18:56:00,53.3,37.6,30.41,WNW,292,0.0,0.0,55,0.00,,,0.00,WUHU21623XXSP,2013-03-04 23:56:00,
2013-03-04 19:01:00,53.0,37.3,30.42,WNW,292,0.0,0.0,55,0.00,,,0.00,WUHU21623XXSP,2013-03-05 00:01:00,
2013-03-04 19:06:00,52.8,37.6,30.41,WNW,292,0.0,0.0,56,0.00,,,0.00,WUHU21623XXSP,2013-03-05 00:06:00,
2013-03-04 19:11:00,52.4,37.2,30.41,WNW,292,0.0,0.0,56,0.00,,,0.00,WUHU21623XXSP,2013-03-05 00:11:00,
2013-03-04 19:16:00,52.2,37.5,30.41,WNW,292,0.0,0.0,57,0.00,,,0.00,WUHU21623XXSP,2013-03-05 00:16:00,
2013-03-04 19:21:00,51.9,37.7,30.42,WNW,292,0.0,0.0,58,0.00,,,0.00,WUHU21623XXSP,2013-03-05 00:21:00,
2013-03-04 19:26:00,51.9,37.7,30.42,WNW,292,0.0,0.0,58,0.00,,,0.00,WUHU21623XXSP,2013-03-05 00:26:00,
2013-03-04 19:31:00,51.5,37.3,30.42,WNW,292,0.0,0.0,58,0.00,,,0.00,WUHU21623XXSP,2013-03-05 00:31:00,
2013-03-04 19:37:00,51.3,37.5,30.42,WNW,292,0.0,0.0,59,0.00,,,0.00,WUHU21623XXSP,2013-03-05 00:37:00,
2013-03-04 19:42:00,51.0,37.7,30.42,WNW,292,0.0,0.0,60,0.00,,,0.00,WUHU21623XXSP,2013-03-05 00:42:00,
2013-03-04 19:47:00,50.8,37.9,30.41,WNW,292,0.0,0.0,61,0.00,,,0.00,WUHU21623XXSP,2013-03-05 00:47:00,
2013-03-04 19:52:00,50.6,37.7,30.42,WNW,292,0.0,0.0,61,0.00,,,0.00,WUHU21623XXSP,2013-03-05 00:52:00,
2013-03-04 19:57:00,50.4,37.6,30.41,WNW,292,0.0,0.0,61,0.00,,,0.00,WUHU21623XXSP,2013-03-05 00:57:00,
2013-03-04 20:02:00,50.1,37.7,30.41,WNW,292,0.0,0.0,62,0.00,,,0.00,WUHU21623XXSP,2013-03-05 01:02:00,
2013-03-04 20:07:00,49.9,37.9,30.40,WNW,292,0.0,0.0,63,0.00,,,0.00,WUHU21623XXSP,2013-03-05 01:07:00,
2013-03-04 20:12:00,49.7,37.7,30.41,WNW,292,0.0,0.0,63,0.00,,,0.00,WUHU21623XXSP,2013-03-05 01:12:00,
2013-03-04 20:17:00,49.5,37.9,30.41,WNW,292,0.0,0.0,64,0.00,,,0.00,WUHU21623XXSP,2013-03-05 01:17:00,
2013-03-04 20:22:00,49.2,38.0,30.41,WNW,292,0.0,0.0,65,0.00,,,0.00,WUHU21623XXSP,2013-03-05 01:22:00,
2013-03-04 20:27:00,49.2,38.0,30.41,WNW,292,0.0,0.0,65,0.00,,,0.00,WUHU21623XXSP,2013-03-05 01:27:00,
2013-03-04 20:32:00,48.8,37.7,30.41,WNW,292,0.0,0.0,65,0.00,,,0.00,WUHU21623XXSP,2013-03-05 01:32:00,
2013-03-04 20:37:00,48.6,37.9,30.41,WNW,292,0.0,0.0,66,0.00,,,0.00,WUHU21623XXSP,2013-03-05 01:37:00,
2013-03-04 20:42:00,48.6,37.9,30.41,WNW,292,0.0,0.0,66,0.00,,,0.00,WUHU21623XXSP,2013-03-05 01:42:00,
2013-03-04 20:47:00,48.3,38.0,30.40,WNW,292,0.0,0.0,67,0.00,,,0.00,WUHU21623XXSP,2013-03-05 01:47:00,
2013-03-04 20:52:00,48.1,38.1,30.40,WNW,292,0.0,0.0,68,0.00,,,0.00,WUHU21623XXSP,2013-03-05 01:52:00,
2013-03-04 20:57:00,48.1,38.1,30.41,WNW,292,0.0,0.0,68,0.00,,,0.00,WUHU21623XXSP,2013-03-05 01:57:00,
2013-03-04 21:02:00,47.9,38.3,30.41,WNW,292,0.0,0.0,69,0.00,,,0.00,WUHU21623XXSP,2013-03-05 02:02:00,
2013-03-04 21:07:00,47.9,38.3,30.41,WNW,292,0.0,0.0,69,0.00,,,0.00,WUHU21623XXSP,2013-03-05 02:07:00,
2013-03-04 21:12:00,47.7,38.5,30.41,WNW,292,0.0,0.0,70,0.00,,,0.00,WUHU21623XXSP,2013-03-05 02:12:00,
2013-03-04 21:17:00,47.7,38.5,30.41,WNW,292,0.0,0.0,70,0.00,,,0.00,WUHU21623XXSP,2013-03-05 02:17:00,
2013-03-04 21:22:00,47.6,38.4,30.41,WNW,292,0.0,0.0,70,0.00,,,0.00,WUHU21623XXSP,2013-03-05 02:22:00,
2013-03-04 21:27:00,47.4,38.6,30.42,WNW,292,0.0,0.0,71,0.00,,,0.00,WUHU21623XXSP,2013-03-05 02:27:00,
2013-03-04 21:32:00,47.2,38.7,30.42,WNW,292,0.0,0.0,72,0.00,,,0.00,WUHU21623XXSP,2013-03-05 02:32:00,
2013-03-04 21:37:00,47.0,38.5,30.42,WNW,292,0.0,0.0,72,0.00,,,0.00,WUHU21623XXSP,2013-03-05 02:37:00,
2013-03-04 21:42:00,47.0,38.9,30.42,WNW,292,0.0,0.0,73,0.00,,,0.00,WUHU21623XXSP,2013-03-05 02:42:00,
2013-03-04 21:47:00,46.8,38.7,30.43,WNW,292,0.0,0.0,73,0.00,,,0.00,WUHU21623XXSP,2013-03-05 02:47:00,
2013-03-04 21:52:00,46.7,38.6,30.43,WNW,292,0.0,0.0,73,0.00,,,0.00,WUHU21623XXSP,2013-03-05 02:52:00,
2013-03-04 21:57:00,46.5,38.7,30.43,WNW,292,0.0,0.0,74,0.00,,,0.00,WUHU21623XXSP,2013-03-05 02:57:00,
2013-03-04 22:02:00,46.3,38.5,30.43,WNW,292,0.0,0.0,74,0.00,,,0.00,WUHU21623XXSP,2013-03-05 03:02:00,
2013-03-04 22:07:00,46.1,38.3,30.42,WNW,292,0.0,0.0,74,0.00,,,0.00,WUHU21623XXSP,2013-03-05 03:07:00,
2013-03-04 22:12:00,46.1,38.7,30.42,WNW,292,0.0,0.0,75,0.00,,,0.00,WUHU21623XXSP,2013-03-05 03:12:00,
2013-03-04 22:17:00,45.9,38.5,30.42,WNW,292,0.0,0.0,75,0.00,,,0.00,WUHU21623XXSP,2013-03-05 03:17:00,
2013-03-04 22:22:00,45.8,38.4,30.43,WNW,292,0.0,0.0,75,0.00,,,0.00,WUHU21623XXSP,2013-03-05 03:22:00,
2013-03-04 22:27:00,45.6,38.2,30.42,WNW,292,0.0,0.0,75,0.00,,,0.00,WUHU21623XXSP,2013-03-05 03:27:00,
2013-03-04 22:32:00,45.6,38.2,30.43,WNW,292,0.0,0.0,75,0.00,,,0.00,WUHU21623XXSP,2013-03-05 03:32:00,
2013-03-04 22:37:00,45.2,38.1,30.42,WNW,292,0.0,0.0,76,0.00,,,0.00,WUHU21623XXSP,2013-03-05 03:37:00,
2013-03-04 22:42:00,45.2,38.1,30.43,WNW,292,0.0,0.0,76,0.00,,,0.00,WUHU21623XXSP,2013-03-05 03:42:00,
2013-03-04 22:47:00,45.2,38.5,30.43,WNW,292,0.0,0.0,77,0.00,,,0.00,WUHU21623XXSP,2013-03-05 03:47:00,
2013-03-04 22:52:00,45.2,38.5,30.43,WNW,292,0.0,0.0,77,0.00,,,0.00,WUHU21623XXSP,2013-03-05 03:52:00,
2013-03-04 22:57:00,45.2,38.8,30.42,WNW,292,0.0,0.0,78,0.00,,,0.00,WUHU21623XXSP,2013-03-05 03:57:00,
2013-03-04 23:02:00,45.2,38.8,30.42,WNW,292,0.0,0.0,78,0.00,,,0.00,WUHU21623XXSP,2013-03-05 04:02:00,
2013-03-04 23:07:00,45.0,38.6,30.42,WNW,292,0.0,0.0,78,0.00,,,0.00,WUHU21623XXSP,2013-03-05 04:07:00,
2013-03-04 23:12:00,44.9,38.5,30.42,WNW,292,0.0,0.0,78,0.00,,,0.00,WUHU21623XXSP,2013-03-05 04:12:00,
2013-03-04 23:17:00,44.7,38.6,30.42,WNW,292,0.0,0.0,79,0.00,,,0.00,WUHU21623XXSP,2013-03-05 04:17:00,
2013-03-04 23:22:00,44.7,38.6,30.42,WNW,292,0.0,0.0,79,0.00,,,0.00,WUHU21623XXSP,2013-03-05 04:22:00,
2013-03-04 23:27:00,44.7,38.6,30.42,WNW,292,0.0,0.0,79,0.00,,,0.00,WUHU21623XXSP,2013-03-05 04:27:00,
2013-03-04 23:32:00,44.5,38.7,30.42,WNW,292,0.0,0.0,80,0.00,,,0.00,WUHU21623XXSP,2013-03-05 04:32:00,
2013-03-04 23:37:00,44.3,38.5,30.42,WNW,292,0.0,0.0,80,0.00,,,0.00,WUHU21623XXSP,2013-03-05 04:37:00,
2013-03-04 23:42:00,44.1,38.3,30.41,WNW,292,0.0,0.0,80,0.00,,,0.00,WUHU21623XXSP,2013-03-05 04:42:00,
2013-03-04 23:47:00,44.1,38.3,30.41,WNW,292,0.0,0.0,80,0.00,,,0.00,WUHU21623XXSP,2013-03-05 04:47:00,
2013-03-04 23:53:00,44.0,38.3,30.42,WNW,292,0.0,0.0,80,0.00,,,0.00,WUHU21623XXSP,2013-03-05 04:53:00,
2013-03-04 23:58:00,44.0,38.3,30.41,WNW,292,0.0,0.0,80,0.00,,,0.00,WUHU21623XXSP,2013-03-05 04:58:00,